Time;durP1;ratioP1;P1;durP2;ratioP2;P2;SDS_P1;SDS_P2;PMS_P1;PMS_P2;Temp;Humidity;BMP_temperature;BMP_pressure;BME280_temperature;BME280_humidity;BME280_pressure;Samples;Min_cycle;Max_cycle;Signal;HPM_P1;HPM_P2
2021/08/30 00:01:14;;;;;;;16.97;13.53;;;;;;;16.01;72.57;94733.97;5049938;28;20435;-74
2021/08/30 00:03:43;;;;;;;16.00;14.17;;;;;;;16.05;72.70;94740.22;5038515;28;20554;-74
2021/08/30 00:06:10;;;;;;;17.00;14.53;;;;;;;15.99;72.93;94746.69;5029909;28;20550;-74
2021/08/30 00:08:38;;;;;;;15.57;13.87;;;;;;;15.99;72.93;94749.31;5041250;28;20442;-73
2021/08/30 00:11:05;;;;;;;15.67;13.43;;;;;;;16.14;71.23;94749.03;5049358;28;20434;-74
2021/08/30 00:13:32;;;;;;;14.43;12.93;;;;;;;16.31;71.56;94749.25;5050018;28;21016;-74
2021/08/30 00:16:01;;;;;;;14.63;13.03;;;;;;;16.23;71.88;94748.06;5049469;28;20561;-73
2021/08/30 00:18:29;;;;;;;14.80;13.30;;;;;;;16.24;71.57;94751.47;5050048;28;20447;-75
2021/08/30 00:20:56;;;;;;;16.33;12.87;;;;;;;16.24;71.31;94738.25;5050064;28;20439;-73
2021/08/30 00:23:23;;;;;;;13.77;12.37;;;;;;;15.95;72.16;94753.63;5045973;28;20472;-73
2021/08/30 00:25:50;;;;;;;15.73;13.27;;;;;;;16.31;71.37;94761.69;5039445;28;20442;-73
2021/08/30 00:28:17;;;;;;;14.00;12.43;;;;;;;16.09;70.60;94768.41;5034227;28;20450;-73
2021/08/30 00:30:44;;;;;;;16.77;13.90;;;;;;;16.18;71.38;94750.03;5037888;28;20457;-73
2021/08/30 00:33:12;;;;;;;14.23;12.43;;;;;;;16.38;70.47;94762.88;5049639;28;20471;-74
2021/08/30 00:35:40;;;;;;;15.43;13.10;;;;;;;16.14;70.56;94747.19;5036490;28;20435;-73
2021/08/30 00:38:07;;;;;;;14.47;13.00;;;;;;;16.23;70.25;94752.56;5049889;28;20435;-75
2021/08/30 00:40:36;;;;;;;13.03;11.63;;;;;;;16.55;69.36;94765.72;5049269;28;20450;-73
2021/08/30 00:43:03;;;;;;;15.13;13.50;;;;;;;16.36;70.36;94759.72;5049274;28;20478;-73
2021/08/30 00:45:31;;;;;;;17.40;13.07;;;;;;;16.23;70.34;94768.44;5049036;28;20439;-74
2021/08/30 00:48:00;;;;;;;14.20;12.80;;;;;;;16.37;70.06;94771.84;5039686;28;20530;-73
2021/08/30 00:50:28;;;;;;;17.03;12.13;;;;;;;16.31;70.46;94765.13;5043841;28;20451;-74
2021/08/30 00:52:55;;;;;;;15.00;12.60;;;;;;;16.38;69.92;94765.50;5049707;28;20443;-73
2021/08/30 00:55:22;;;;;;;15.93;12.93;;;;;;;15.98;70.26;94753.06;5049179;28;20500;-73
2021/08/30 00:57:50;;;;;;;14.67;11.90;;;;;;;16.21;70.18;94758.16;5029913;28;20443;-74
2021/08/30 01:00:17;;;;;;;14.37;11.57;;;;;;;16.19;69.95;94775.38;5040685;28;20435;-73
2021/08/30 01:02:45;;;;;;;14.87;12.17;;;;;;;16.11;69.99;94776.06;5049132;28;20528;-75
2021/08/30 01:05:14;;;;;;;13.17;11.23;;;;;;;16.13;69.67;94768.59;5049535;28;20478;-72
2021/08/30 01:08:00;;;;;;;17.10;12.47;;;;;;;16.17;70.57;94780.16;5049511;28;20439;-73
2021/08/30 01:10:30;;;;;;;13.13;11.20;;;;;;;16.27;69.58;94777.34;5048721;28;20450;-74
2021/08/30 01:12:59;;;;;;;12.87;11.57;;;;;;;16.13;69.56;94773.91;5049297;28;20453;-73
2021/08/30 01:15:31;;;;;;;12.80;11.50;;;;;;;16.20;69.27;94774.31;5049218;28;20453;-74
2021/08/30 01:18:01;;;;;;;13.93;10.70;;;;;;;16.17;69.25;94785.47;5035220;28;20534;-72
2021/08/30 01:20:59;;;;;;;14.57;11.57;;;;;;;16.32;68.48;94785.19;5041009;28;20447;-73
2021/08/30 01:23:28;;;;;;;12.00;10.73;;;;;;;16.02;69.57;94775.94;5047166;28;20467;-73
2021/08/30 01:25:59;;;;;;;13.00;11.10;;;;;;;16.00;69.70;94785.25;5038451;28;20489;-73
2021/08/30 01:28:33;;;;;;;15.90;10.50;;;;;;;15.98;69.91;94782.88;5030208;28;20444;-72
2021/08/30 01:31:06;;;;;;;12.80;10.87;;;;;;;15.85;70.18;94785.50;5041812;28;20478;-74
2021/08/30 01:33:32;;;;;;;12.60;10.10;;;;;;;15.70;70.74;94791.03;5036988;28;20442;-73
2021/08/30 01:35:59;;;;;;;11.93;10.20;;;;;;;15.72;70.28;94792.34;5051131;28;20446;-72
2021/08/30 01:38:27;;;;;;;15.93;10.73;;;;;;;15.77;69.93;94791.44;5053925;28;20451;-73
2021/08/30 01:40:54;;;;;;;12.43;11.13;;;;;;;15.53;71.13;94785.53;5043072;28;20450;-73
2021/08/30 01:43:20;;;;;;;11.27;9.77;;;;;;;15.58;70.48;94778.31;5034631;28;20478;-74
2021/08/30 01:45:48;;;;;;;11.30;10.07;;;;;;;15.75;69.97;94788.31;5015941;28;20446;-74
2021/08/30 01:48:15;;;;;;;11.10;9.37;;;;;;;15.63;70.36;94785.34;5029373;28;20440;-73
2021/08/30 01:50:42;;;;;;;11.00;9.07;;;;;;;15.71;69.99;94784.69;5011737;28;20444;-73
2021/08/30 01:53:11;;;;;;;9.93;8.83;;;;;;;15.70;69.66;94785.75;5018876;28;20754;-74
2021/08/30 01:55:47;;;;;;;12.97;9.37;;;;;;;15.97;69.20;94783.19;5014774;28;20445;-73
2021/08/30 02:00:48;;;;;;;9.90;8.43;;;;;;;15.99;69.25;94778.38;5016986;28;20470;-73
2021/08/30 02:03:20;;;;;;;10.33;8.63;;;;;;;16.00;69.20;94782.63;5021043;28;20483;-73
2021/08/30 02:05:53;;;;;;;10.47;9.17;;;;;;;16.18;68.46;94787.03;5016893;28;20977;-72
2021/08/30 02:08:24;;;;;;;9.47;8.47;;;;;;;16.11;68.05;94784.00;5013184;28;20440;-72
2021/08/30 02:10:54;;;;;;;10.30;8.87;;;;;;;15.99;67.95;94788.97;5026738;28;20490;-73
2021/08/30 02:13:26;;;;;;;11.07;8.10;;;;;;;15.86;68.50;94789.72;5024622;28;20449;-72
2021/08/30 02:15:54;;;;;;;10.00;8.17;;;;;;;15.49;69.16;94779.25;5026171;28;20452;-73
2021/08/30 02:18:26;;;;;;;9.37;8.00;;;;;;;15.66;69.13;94795.31;5028353;28;20979;-73
2021/08/30 02:21:13;;;;;;;8.73;7.80;;;;;;;15.75;69.25;94812.88;5012530;28;20433;-72
2021/08/30 02:23:51;;;;;;;9.30;8.30;;;;;;;15.96;68.97;94805.41;5019951;28;20511;-72
2021/08/30 02:26:24;;;;;;;8.43;7.63;;;;;;;15.96;68.20;94805.41;5034094;28;20455;-72
2021/08/30 02:28:51;;;;;;;10.00;8.13;;;;;;;15.79;68.78;94805.16;5020618;28;20470;-74
2021/08/30 02:31:19;;;;;;;10.30;8.00;;;;;;;15.91;68.14;94797.56;5032883;28;20435;-71
2021/08/30 02:33:47;;;;;;;8.03;7.03;;;;;;;15.66;68.66;94800.63;5033005;28;20511;-72
2021/08/30 02:36:18;;;;;;;10.17;7.20;;;;;;;15.64;68.56;94815.97;5032541;28;20443;-72
2021/08/30 02:38:46;;;;;;;7.70;6.90;;;;;;;15.54;69.16;94810.84;5028159;28;20977;-73
2021/08/30 02:41:14;;;;;;;7.13;6.30;;;;;;;15.45;68.77;94815.22;5024598;28;20444;-73
2021/08/30 02:43:41;;;;;;;7.00;6.30;;;;;;;15.39;68.71;94806.56;5037987;28;20471;-71
2021/08/30 02:46:08;;;;;;;7.97;7.10;;;;;;;15.53;68.77;94830.41;5051784;28;20438;-72
2021/08/30 02:48:37;;;;;;;10.10;7.00;;;;;;;15.70;68.63;94822.75;5051821;28;20542;-72
2021/08/30 02:51:04;;;;;;;7.17;6.47;;;;;;;15.70;67.43;94812.19;5031321;28;20447;-72
2021/08/30 02:53:33;;;;;;;10.37;6.60;;;;;;;15.72;67.02;94816.09;5032001;28;20450;-71
2021/08/30 02:56:00;;;;;;;8.73;5.77;;;;;;;15.65;67.28;94809.63;5045160;28;20436;-73
2021/08/30 02:58:27;;;;;;;8.70;6.20;;;;;;;15.52;67.75;94805.06;5043001;28;20446;-73
2021/08/30 03:00:55;;;;;;;6.20;5.60;;;;;;;15.45;67.70;94815.22;5050880;28;20438;-73
2021/08/30 03:03:22;;;;;;;6.27;5.67;;;;;;;15.69;66.41;94818.53;5051749;28;20679;-73
2021/08/30 03:05:51;;;;;;;6.53;5.83;;;;;;;15.67;66.56;94813.56;5051140;28;20980;-73
2021/08/30 03:08:20;;;;;;;6.70;5.80;;;;;;;15.56;66.45;94811.34;5043356;28;20969;-73
2021/08/30 03:10:47;;;;;;;7.43;5.70;;;;;;;15.55;66.71;94813.19;5044759;28;20438;-74
2021/08/30 03:13:14;;;;;;;7.33;5.77;;;;;;;15.49;66.27;94810.94;5037831;28;20474;-72
2021/08/30 03:15:45;;;;;;;10.23;5.10;;;;;;;15.58;66.00;94820.56;5051056;28;20841;-73
2021/08/30 03:18:13;;;;;;;6.43;5.60;;;;;;;15.49;65.97;94810.94;5036850;28;20443;-73
2021/08/30 03:20:40;;;;;;;6.27;5.60;;;;;;;15.48;66.69;94827.84;5041704;28;20440;-73
2021/08/30 03:23:08;;;;;;;8.13;5.60;;;;;;;15.66;65.67;94825.19;5032248;28;20471;-76
2021/08/30 03:25:37;;;;;;;10.60;5.87;;;;;;;15.72;65.21;94826.69;5050687;28;20439;-72
2021/08/30 03:28:06;;;;;;;6.80;4.97;;;;;;;15.74;65.18;94823.75;5037180;28;20502;-72
2021/08/30 03:30:34;;;;;;;7.17;5.53;;;;;;;15.82;66.15;94826.50;5030489;28;20547;-74
2021/08/30 03:33:02;;;;;;;6.13;5.27;;;;;;;15.69;65.25;94824.59;5044222;28;20810;-72
2021/08/30 03:35:31;;;;;;;6.27;4.90;;;;;;;15.58;65.15;94830.34;5044950;28;20440;-73
2021/08/30 03:38:00;;;;;;;6.57;5.00;;;;;;;15.66;65.26;94843.66;5043156;28;20441;-73
2021/08/30 03:40:29;;;;;;;7.20;5.07;;;;;;;15.32;65.78;94807.97;5045865;28;20452;-73
2021/08/30 03:42:56;;;;;;;8.03;5.27;;;;;;;15.27;65.75;94834.47;5030704;28;20483;-72
2021/08/30 03:45:26;;;;;;;7.70;5.40;;;;;;;15.48;65.47;94846.31;5033129;28;20443;-74
2021/08/30 03:47:55;;;;;;;9.63;5.63;;;;;;;15.66;65.57;94833.09;5051170;28;20447;-73
2021/08/30 03:50:24;;;;;;;7.93;5.30;;;;;;;15.74;65.31;94847.53;5049743;28;20447;-73
2021/08/30 03:52:52;;;;;;;7.10;5.70;;;;;;;15.48;65.04;94846.31;5051023;28;20516;-75
2021/08/30 03:55:20;;;;;;;5.73;5.13;;;;;;;15.45;65.08;94836.34;5050906;28;20447;-73
2021/08/30 03:57:50;;;;;;;6.50;5.20;;;;;;;15.61;64.65;94829.75;5051950;28;20428;-74
2021/08/30 04:00:18;;;;;;;8.57;5.63;;;;;;;15.51;64.38;94851.06;5031155;28;20989;-73
2021/08/30 04:02:47;;;;;;;8.03;5.83;;;;;;;15.22;64.73;94844.00;5045807;28;20586;-73
2021/08/30 04:05:18;;;;;;;10.17;5.93;;;;;;;15.34;65.68;94850.72;5034047;28;20546;-74
2021/08/30 04:07:46;;;;;;;6.03;5.30;;;;;;;15.40;64.81;94844.31;5033700;28;20485;-73
2021/08/30 04:10:13;;;;;;;16.87;5.87;;;;;;;15.30;64.57;94845.22;5030817;28;20978;-73
2021/08/30 04:12:41;;;;;;;10.33;5.53;;;;;;;15.57;64.00;94844.59;5030367;28;20448;-72
2021/08/30 04:15:08;;;;;;;7.27;5.73;;;;;;;15.68;64.25;94846.03;5030555;28;20432;-71
2021/08/30 04:17:35;;;;;;;7.17;6.00;;;;;;;15.59;64.42;94847.75;5041724;28;20443;-74
2021/08/30 04:20:04;;;;;;;6.97;5.57;;;;;;;15.46;63.97;94859.03;5049832;28;20451;-72
2021/08/30 04:22:35;;;;;;;8.67;5.67;;;;;;;15.50;63.94;94854.75;5049700;28;20443;-74
2021/08/30 04:25:05;;;;;;;9.73;6.07;;;;;;;15.66;63.80;94848.16;5047019;28;20530;-72
2021/08/30 04:27:33;;;;;;;7.67;6.17;;;;;;;15.59;63.73;94845.09;5029646;28;20530;-74
2021/08/30 04:29:59;;;;;;;11.33;6.33;;;;;;;15.64;63.47;94860.88;5044214;28;20447;-72
2021/08/30 04:32:32;;;;;;;7.43;6.47;;;;;;;15.57;63.56;94861.25;5029935;28;20534;-74
2021/08/30 04:35:00;;;;;;;7.50;6.20;;;;;;;15.62;63.33;94866.44;5031378;28;20443;-74
2021/08/30 04:37:27;;;;;;;8.77;6.13;;;;;;;15.65;62.54;94857.16;5049652;28;20443;-73
2021/08/30 04:39:54;;;;;;;10.00;6.63;;;;;;;15.58;63.10;94867.31;5050030;28;20547;-74
2021/08/30 04:42:21;;;;;;;7.80;6.47;;;;;;;15.85;63.84;94867.41;5042858;28;20468;-72
2021/08/30 04:44:49;;;;;;;7.07;6.10;;;;;;;16.01;62.49;94872.19;5029910;28;20479;-73
2021/08/30 04:47:17;;;;;;;7.10;6.37;;;;;;;15.96;62.48;94876.75;5048003;28;20445;-73
2021/08/30 04:49:44;;;;;;;9.63;6.67;;;;;;;16.09;63.00;94881.31;5039566;28;20458;-74
2021/08/30 04:52:11;;;;;;;8.33;6.10;;;;;;;15.80;63.31;94870.16;5029196;28;20448;-72
2021/08/30 04:54:38;;;;;;;7.67;5.97;;;;;;;15.86;62.86;94876.91;5037561;28;20438;-73
2021/08/30 04:57:05;;;;;;;10.10;7.17;;;;;;;16.17;62.46;94867.41;5049586;28;20439;-74
2021/08/30 04:59:32;;;;;;;7.10;6.40;;;;;;;16.14;61.62;94865.34;5029760;28;20469;-72
2021/08/30 05:01:58;;;;;;;7.73;6.13;;;;;;;16.11;61.16;94868.59;5041027;28;20442;-72
2021/08/30 05:04:26;;;;;;;9.57;6.80;;;;;;;16.35;60.77;94866.56;5045352;28;20482;-73
2021/08/30 05:06:53;;;;;;;9.37;7.07;;;;;;;16.17;62.03;94862.13;5028864;28;21119;-75
2021/08/30 05:09:20;;;;;;;9.00;7.03;;;;;;;16.11;60.66;94856.13;5043559;28;20521;-75
2021/08/30 05:11:47;;;;;;;8.73;6.80;;;;;;;16.30;60.92;94864.00;5038184;28;20826;-71
2021/08/30 05:14:14;;;;;;;7.30;6.60;;;;;;;16.29;59.73;94867.75;5034645;28;20444;-76
2021/08/30 05:16:41;;;;;;;9.17;6.77;;;;;;;16.39;60.67;94861.47;5028953;28;21043;-72
2021/08/30 05:19:08;;;;;;;9.10;7.03;;;;;;;16.64;59.86;94871.66;5030063;28;20830;-74
2021/08/30 05:21:35;;;;;;;8.97;7.00;;;;;;;16.59;60.42;94866.44;5028557;28;20440;-74
2021/08/30 05:24:02;;;;;;;8.50;6.60;;;;;;;16.52;60.04;94869.47;5029571;28;20510;-72
2021/08/30 05:26:29;;;;;;;9.07;6.67;;;;;;;16.63;60.55;94868.22;5029606;28;20486;-72
2021/08/30 05:28:56;;;;;;;8.93;6.40;;;;;;;16.57;60.47;94864.06;5041857;28;20852;-73
2021/08/30 05:31:23;;;;;;;7.40;6.70;;;;;;;16.80;59.71;94878.22;5030011;28;20454;-73
2021/08/30 05:33:50;;;;;;;7.60;6.70;;;;;;;16.94;59.91;94879.78;5033306;28;20443;-74
2021/08/30 05:36:18;;;;;;;7.80;6.83;;;;;;;16.91;59.51;94875.09;5044355;28;20546;-72
2021/08/30 05:38:44;;;;;;;8.40;5.60;;;;;;;16.69;59.54;94887.41;5052860;28;20441;-75
2021/08/30 05:41:11;;;;;;;9.77;6.53;;;;;;;16.75;58.60;94887.00;5052939;28;20439;-73
2021/08/30 05:43:38;;;;;;;8.37;6.03;;;;;;;16.89;58.64;94885.19;5050285;28;20443;-72
2021/08/30 05:46:05;;;;;;;7.47;6.10;;;;;;;16.90;58.37;94884.09;5032650;28;20452;-72
2021/08/30 05:48:32;;;;;;;8.90;7.10;;;;;;;17.06;59.32;94882.69;5033795;28;20436;-73
2021/08/30 05:50:59;;;;;;;7.87;6.63;;;;;;;17.10;58.55;94883.69;5032963;28;20983;-73
2021/08/30 05:53:26;;;;;;;9.93;6.00;;;;;;;17.25;58.53;94890.53;5044434;28;20534;-73
2021/08/30 05:55:54;;;;;;;10.60;6.87;;;;;;;17.46;58.17;94886.38;5052465;28;20443;-73
2021/08/30 05:58:21;;;;;;;7.57;6.30;;;;;;;17.16;57.80;94887.81;5052892;28;20438;-73
2021/08/30 06:00:48;;;;;;;7.87;7.07;;;;;;;17.41;56.97;94877.75;5054191;28;20959;-73
2021/08/30 06:03:16;;;;;;;9.20;6.80;;;;;;;17.31;56.69;94868.16;5054305;28;21027;-72
2021/08/30 06:05:43;;;;;;;8.63;6.60;;;;;;;17.23;56.17;94892.69;5049416;28;20517;-72
2021/08/30 06:08:11;;;;;;;8.17;6.00;;;;;;;17.36;57.33;94885.78;5060161;28;20463;-74
2021/08/30 06:10:38;;;;;;;9.43;6.60;;;;;;;17.55;56.85;94894.44;5054581;28;20448;-74
2021/08/30 06:13:05;;;;;;;8.17;6.40;;;;;;;17.49;56.65;94885.03;5054703;28;20439;-74
2021/08/30 06:15:32;;;;;;;8.80;6.80;;;;;;;17.57;56.02;94886.97;5052327;28;20588;-71
2021/08/30 06:17:59;;;;;;;8.37;6.50;;;;;;;17.79;55.74;94889.66;5035662;28;20468;-73
2021/08/30 06:20:26;;;;;;;8.50;6.70;;;;;;;17.72;55.73;94883.97;5053862;28;20965;-76
2021/08/30 06:22:53;;;;;;;9.70;6.30;;;;;;;17.72;55.44;94886.63;5055060;28;20447;-70
2021/08/30 06:25:20;;;;;;;11.77;6.70;;;;;;;17.72;57.13;94884.75;5038351;28;20556;-73
2021/08/30 06:27:56;;;;;;;8.97;7.13;;;;;;;18.05;57.08;94887.97;5037227;28;20432;-72
2021/08/30 06:30:23;;;;;;;7.43;6.53;;;;;;;18.08;55.65;94884.72;5036635;28;20448;-71
2021/08/30 06:32:50;;;;;;;8.73;6.40;;;;;;;18.06;56.08;94876.28;5035654;28;20436;-72
2021/08/30 06:35:17;;;;;;;9.97;6.60;;;;;;;17.96;55.99;94869.34;5054713;28;20813;-80
2021/08/30 06:37:44;;;;;;;9.27;6.57;;;;;;;18.04;55.10;94881.09;5043071;28;20482;-74
2021/08/30 06:40:12;;;;;;;7.53;6.33;;;;;;;18.11;55.46;94887.56;5048223;28;20446;-74
2021/08/30 06:42:39;;;;;;;10.70;6.50;;;;;;;18.11;56.20;94887.56;5051313;28;20485;-75
2021/08/30 06:45:07;;;;;;;7.13;6.20;;;;;;;18.10;54.48;94879.91;5051965;28;20486;-75
2021/08/30 06:47:35;;;;;;;7.23;5.73;;;;;;;18.27;54.62;94887.97;5051513;28;20477;-72
2021/08/30 06:50:04;;;;;;;7.97;5.93;;;;;;;18.51;54.57;94892.94;5050218;28;20450;-76
2021/08/30 06:52:31;;;;;;;8.27;6.10;;;;;;;18.46;53.54;94888.56;5051385;28;20443;-74
2021/08/30 06:54:58;;;;;;;7.53;6.40;;;;;;;18.52;53.67;94889.22;5051811;28;20442;-72
2021/08/30 06:57:25;;;;;;;9.57;6.60;;;;;;;18.70;54.25;94904.91;5051107;28;20455;-71
2021/08/30 06:59:51;;;;;;;6.30;5.50;;;;;;;18.62;52.23;94897.72;5043279;28;20447;-72
2021/08/30 07:02:18;;;;;;;6.37;5.43;;;;;;;18.58;53.16;94901.25;5045680;28;20537;-73
2021/08/30 07:04:45;;;;;;;8.07;5.77;;;;;;;18.44;53.07;94896.06;5051734;28;20485;-74
2021/08/30 07:07:12;;;;;;;8.93;5.37;;;;;;;18.32;51.98;94893.13;5051150;28;21187;-74
2021/08/30 07:09:39;;;;;;;6.57;5.70;;;;;;;18.55;53.22;94891.25;5046059;28;20451;-72
2021/08/30 07:12:07;;;;;;;6.90;5.63;;;;;;;18.41;52.64;94890.53;5042372;28;20496;-71
2021/08/30 07:14:52;;;;;;;6.30;5.70;;;;;;;18.85;53.38;94893.91;5037730;28;20566;-73
2021/08/30 07:17:19;;;;;;;6.50;5.57;;;;;;;18.77;52.44;94885.91;5041449;28;20446;-75
2021/08/30 07:19:49;;;;;;;6.73;6.03;;;;;;;18.83;52.94;94888.09;5047920;28;20452;-73
2021/08/30 07:22:16;;;;;;;6.93;5.93;;;;;;;18.96;52.67;94891.75;5051123;28;20494;-72
2021/08/30 07:24:43;;;;;;;8.30;5.87;;;;;;;18.76;51.87;94882.47;5036345;28;20980;-75
2021/08/30 07:27:11;;;;;;;7.10;5.40;;;;;;;19.10;51.81;94898.50;5037595;28;20450;-73
2021/08/30 07:29:38;;;;;;;7.50;5.50;;;;;;;19.11;51.22;94900.09;5051164;28;20957;-73
2021/08/30 07:32:05;;;;;;;5.70;4.80;;;;;;;19.09;51.07;94896.16;5050490;28;20447;-75
2021/08/30 07:34:32;;;;;;;7.37;5.10;;;;;;;19.06;51.67;94892.28;5050948;28;20447;-76
2021/08/30 07:36:59;;;;;;;5.93;5.40;;;;;;;19.04;50.45;94899.75;5033058;28;20443;-74
2021/08/30 07:39:26;;;;;;;6.10;5.30;;;;;;;19.34;50.12;94902.69;5041709;28;21239;-72
2021/08/30 07:41:53;;;;;;;7.63;5.93;;;;;;;19.40;50.64;94907.53;5034467;28;20491;-73
2021/08/30 07:44:21;;;;;;;6.50;5.67;;;;;;;19.51;50.62;94898.16;5038845;28;20475;-72
2021/08/30 07:46:49;;;;;;;6.07;5.30;;;;;;;19.56;49.54;94899.91;5050199;28;20478;-71
2021/08/30 07:49:17;;;;;;;8.30;5.40;;;;;;;19.72;50.97;94903.69;5045529;28;20295;-72
2021/08/30 07:51:45;;;;;;;6.57;5.40;;;;;;;19.86;51.36;94899.78;5030835;28;20454;-72
2021/08/30 07:54:12;;;;;;;5.27;4.77;;;;;;;19.46;49.51;94913.47;5034214;28;20200;-75
2021/08/30 07:56:40;;;;;;;6.07;5.00;;;;;;;19.55;50.13;94906.31;5040549;28;20444;-76
2021/08/30 07:59:09;;;;;;;5.33;4.83;;;;;;;19.55;48.87;94914.28;5029520;28;20827;-75
2021/08/30 08:01:36;;;;;;;9.03;5.80;;;;;;;19.62;51.03;94910.06;5030486;28;20239;-70
2021/08/30 08:04:04;;;;;;;6.70;6.03;;;;;;;20.01;50.04;94912.59;5045535;28;20196;-72
2021/08/30 08:06:31;;;;;;;7.87;5.70;;;;;;;20.09;51.46;94913.66;5050085;28;20734;-70
2021/08/30 08:08:58;;;;;;;8.37;5.30;;;;;;;20.05;49.44;94912.75;5050511;28;20196;-71
2021/08/30 08:11:25;;;;;;;5.90;5.20;;;;;;;20.18;48.81;94911.84;5030233;28;20189;-71
2021/08/30 08:13:52;;;;;;;6.70;5.97;;;;;;;19.97;49.33;94906.34;5030463;28;20201;-74
2021/08/30 08:16:19;;;;;;;6.07;5.33;;;;;;;19.75;48.86;94921.66;5047490;28;20736;-72
2021/08/30 08:18:46;;;;;;;6.13;5.47;;;;;;;19.57;48.94;94910.22;5050271;28;20560;-74
2021/08/30 08:21:13;;;;;;;7.57;6.20;;;;;;;19.92;49.80;94911.03;5050143;28;20674;-72
2021/08/30 08:23:40;;;;;;;6.67;5.83;;;;;;;20.22;48.42;94906.69;5030486;28;20197;-71
2021/08/30 08:26:07;;;;;;;5.73;5.07;;;;;;;20.38;47.13;94911.19;5042082;28;20613;-70
2021/08/30 08:28:34;;;;;;;8.43;6.00;;;;;;;20.57;47.54;94914.28;5031861;28;20444;-71
2021/08/30 08:31:01;;;;;;;6.80;5.27;;;;;;;20.14;48.56;94900.22;5029733;28;20199;-74
2021/08/30 08:33:28;;;;;;;6.10;5.47;;;;;;;20.60;50.30;94916.28;5046246;28;20192;-72
2021/08/30 08:35:55;;;;;;;7.40;5.97;;;;;;;20.40;48.34;94901.00;5040721;28;20224;-71
2021/08/30 08:38:23;;;;;;;6.30;5.67;;;;;;;20.28;47.84;94911.50;5044645;28;20193;-71
2021/08/30 08:40:52;;;;;;;7.47;5.40;;;;;;;20.42;48.20;94906.78;5042109;28;20212;-71
2021/08/30 08:43:20;;;;;;;9.13;6.00;;;;;;;21.06;47.78;94892.34;5029864;28;20291;-71
2021/08/30 08:45:51;;;;;;;6.60;6.00;;;;;;;21.22;46.24;94891.81;5029223;28;20213;-70
2021/08/30 08:48:20;;;;;;;6.90;6.20;;;;;;;21.30;48.04;94909.63;5042570;28;20671;-71
2021/08/30 08:50:48;;;;;;;8.27;6.47;;;;;;;21.18;45.79;94900.44;5035183;28;20200;-71
2021/08/30 08:53:15;;;;;;;5.90;4.97;;;;;;;20.95;44.90;94899.09;5040791;28;20363;-74
2021/08/30 08:55:42;;;;;;;8.00;5.20;;;;;;;20.91;46.11;94898.19;5045503;28;20208;-75
2021/08/30 08:58:13;;;;;;;7.43;6.37;;;;;;;20.78;45.46;94901.81;5042008;28;20200;-74
2021/08/30 09:00:42;;;;;;;6.93;6.23;;;;;;;20.88;45.85;94898.81;5050845;28;20189;-71
2021/08/30 09:03:13;;;;;;;7.20;5.67;;;;;;;20.88;46.29;94898.81;5051270;28;20204;-73
2021/08/30 09:05:41;;;;;;;7.00;6.03;;;;;;;21.23;45.59;94893.38;5052380;28;20232;-71
2021/08/30 09:08:41;;;;;;;6.70;6.10;;;;;;;21.34;44.84;94889.22;5048837;28;20631;-71
2021/08/30 09:11:18;;;;;;;7.53;6.80;;;;;;;21.41;45.34;94889.50;5038092;28;20203;-71
2021/08/30 09:14:13;;;;;;;9.77;6.40;;;;;;;21.67;45.37;94895.44;5054900;28;20686;-70
2021/08/30 09:16:40;;;;;;;8.83;6.93;;;;;;;21.75;46.16;94882.03;5047610;28;20216;-75
2021/08/30 09:19:09;;;;;;;7.20;6.10;;;;;;;21.76;45.33;94893.50;5044783;28;20197;-71
2021/08/30 09:21:49;;;;;;;6.87;6.17;;;;;;;21.47;42.87;94893.53;5053360;28;20254;-74
2021/08/30 09:24:21;;;;;;;8.50;6.40;;;;;;;21.44;43.18;94888.88;5054312;28;20188;-76
2021/08/30 09:26:57;;;;;;;6.97;6.27;;;;;;;21.69;45.71;94880.69;5053102;28;20670;-70
2021/08/30 09:29:27;;;;;;;9.27;6.60;;;;;;;21.98;43.83;94894.00;5042207;28;20584;-71
2021/08/30 09:32:15;;;;;;;7.10;6.50;;;;;;;22.07;42.52;94891.25;5036519;28;20195;-69
2021/08/30 09:34:52;;;;;;;5.87;5.37;;;;;;;22.07;41.72;94880.56;5054853;28;20205;-75
2021/08/30 09:37:25;;;;;;;6.67;6.07;;;;;;;21.44;42.21;94892.28;5040338;28;20196;-72
2021/08/30 09:39:55;;;;;;;7.10;6.40;;;;;;;21.44;41.97;94894.19;5041936;28;20648;-78
2021/08/30 09:42:23;;;;;;;6.83;6.13;;;;;;;21.69;41.57;94895.91;5039376;28;20231;-74
2021/08/30 09:44:51;;;;;;;6.70;6.10;;;;;;;21.56;42.44;94891.59;5040742;28;20727;-72
2021/08/30 09:47:21;;;;;;;7.67;6.70;;;;;;;21.66;42.41;94892.00;5046852;28;20205;-74
2021/08/30 09:49:50;;;;;;;7.53;6.60;;;;;;;22.18;42.51;94881.72;5034883;28;20205;-73
2021/08/30 09:52:20;;;;;;;7.00;6.30;;;;;;;22.23;41.80;94889.53;5048640;28;20199;-73
2021/08/30 09:54:48;;;;;;;7.63;6.80;;;;;;;22.38;41.64;94880.91;5044056;28;20285;-72
2021/08/30 09:57:16;;;;;;;7.67;6.27;;;;;;;22.06;41.56;94903.03;5032382;28;20193;-69
2021/08/30 09:59:44;;;;;;;7.33;6.63;;;;;;;22.33;42.31;94875.78;5040203;28;20970;-72
2021/08/30 10:02:17;;;;;;;7.43;6.73;;;;;;;22.62;41.60;94875.66;5039011;28;20199;-70
2021/08/30 10:04:44;;;;;;;8.07;7.27;;;;;;;22.83;42.77;94876.34;5038876;28;20196;-70
2021/08/30 10:07:17;;;;;;;8.27;7.00;;;;;;;23.11;40.75;94882.63;5038947;28;20208;-72
2021/08/30 10:09:45;;;;;;;7.60;6.90;;;;;;;22.59;39.84;94876.31;5038475;28;20610;-73
2021/08/30 10:12:12;;;;;;;9.17;7.63;;;;;;;23.02;41.63;94879.28;5039993;28;20274;-71
2021/08/30 10:14:39;;;;;;;7.40;6.17;;;;;;;22.28;38.79;94875.97;5050641;28;20547;-71
2021/08/30 10:17:06;;;;;;;6.83;6.23;;;;;;;23.06;40.61;94874.06;5048463;28;20189;-73
2021/08/30 10:19:39;;;;;;;8.00;7.20;;;;;;;23.28;37.72;94864.78;5051912;28;20192;-76
2021/08/30 10:22:19;;;;;;;7.37;6.60;;;;;;;23.47;38.14;94865.00;5032545;28;20193;-75
2021/08/30 10:24:47;;;;;;;6.27;5.17;;;;;;;23.21;36.18;94864.56;5033928;28;20204;-75
2021/08/30 10:27:26;;;;;;;6.23;5.43;;;;;;;22.62;37.44;94865.00;5046072;28;20212;-71
2021/08/30 10:30:06;;;;;;;7.97;6.00;;;;;;;23.11;39.75;94873.81;5049291;28;20968;-75
2021/08/30 10:32:38;;;;;;;6.57;5.97;;;;;;;23.46;38.78;94866.13;5043532;28;20193;-72
2021/08/30 10:35:17;;;;;;;7.20;6.50;;;;;;;23.48;39.27;94859.34;5045745;28;20729;-75
2021/08/30 10:37:50;;;;;;;8.80;6.30;;;;;;;23.78;37.77;94873.19;5042269;28;20200;-73
2021/08/30 10:40:20;;;;;;;7.53;5.70;;;;;;;24.04;38.42;94865.56;5037932;28;20582;-71
2021/08/30 10:43:06;;;;;;;9.60;6.53;;;;;;;24.48;37.08;94859.13;5051785;28;20298;-72
2021/08/30 10:45:35;;;;;;;6.03;5.43;;;;;;;23.98;36.60;94864.22;5051110;28;20244;-72
2021/08/30 10:48:05;;;;;;;7.03;5.43;;;;;;;24.26;37.59;94857.00;5041653;28;20219;-72
2021/08/30 10:50:37;;;;;;;6.37;5.73;;;;;;;24.13;35.73;94862.75;5032850;28;20204;-74
2021/08/30 10:53:07;;;;;;;6.20;5.53;;;;;;;24.22;36.13;94864.16;5043281;28;20197;-75
2021/08/30 10:55:37;;;;;;;6.13;5.50;;;;;;;;;;5032730;28;20208;-71
2021/08/30 10:58:34;;;;;;;7.07;6.40;;;;;;;24.67;36.96;94858.47;5051982;28;20731;-75
2021/08/30 11:01:12;;;;;;;7.23;5.53;;;;;;;24.58;37.11;94861.28;5032231;28;20859;-73
2021/08/30 11:03:40;;;;;;;6.93;5.87;;;;;;;24.73;35.78;94860.56;5043428;28;20263;-73
2021/08/30 11:06:09;;;;;;;8.13;5.87;;;;;;;24.86;38.06;94863.94;5047147;28;20699;-73
2021/08/30 11:08:39;;;;;;;7.10;6.37;;;;;;;24.90;36.63;94862.91;5031763;28;20688;-73
2021/08/30 11:11:27;;;;;;;6.93;6.00;;;;;;;24.65;35.87;94858.78;5044802;28;20663;-72
2021/08/30 11:14:13;;;;;;;6.30;5.67;;;;;;;24.50;35.85;94856.09;5045906;28;20589;-71
2021/08/30 11:16:40;;;;;;;6.70;5.50;;;;;;;24.49;37.30;94852.63;5044259;28;20189;-74
2021/08/30 11:19:13;;;;;;;6.20;5.60;;;;;;;24.79;37.22;94853.06;5041905;28;20575;-72
2021/08/30 11:21:53;;;;;;;8.63;5.80;;;;;;;25.05;36.30;94850.63;5050873;28;20203;-73
2021/08/30 11:24:23;;;;;;;8.33;5.43;;;;;;;24.67;36.28;94855.78;5040077;28;20207;-74
2021/08/30 11:26:50;;;;;;;7.23;6.43;;;;;;;24.84;35.83;94850.88;5031151;28;20225;-71
2021/08/30 11:29:17;;;;;;;8.60;5.63;;;;;;;25.07;35.81;94854.50;5041514;28;20211;-70
2021/08/30 11:31:44;;;;;;;6.13;5.63;;;;;;;25.46;37.36;94844.69;5036607;28;20258;-72
2021/08/30 11:34:23;;;;;;;7.27;5.97;;;;;;;25.45;37.15;94853.09;5051135;28;20197;-70
2021/08/30 11:36:51;;;;;;;6.63;6.03;;;;;;;25.33;35.29;94861.25;5051531;28;20762;-72
2021/08/30 11:39:19;;;;;;;7.53;6.20;;;;;;;25.52;35.69;94864.00;5050822;28;20566;-74
2021/08/30 11:41:52;;;;;;;6.73;5.80;;;;;;;25.46;35.89;94860.00;5049214;28;20228;-73
2021/08/30 11:44:19;;;;;;;7.03;6.20;;;;;;;25.29;35.08;94850.41;5039363;28;20200;-75